createdAt,value
2022-10-06T00:00:55.841Z,1.40
2022-10-06T00:03:23.030Z,1.45
2022-10-06T00:05:50.942Z,1.25
2022-10-06T00:08:18.533Z,1.27
2022-10-06T00:10:45.033Z,1.63
2022-10-06T00:13:11.521Z,1.35
2022-10-06T00:15:38.014Z,1.33
2022-10-06T00:18:04.647Z,1.70
2022-10-06T00:20:31.978Z,1.77
2022-10-06T00:22:58.407Z,1.70
2022-10-06T00:25:25.887Z,1.42
2022-10-06T00:27:53.142Z,1.60
2022-10-06T00:30:25.142Z,1.30
2022-10-06T00:32:54.626Z,1.70
2022-10-06T00:35:21.523Z,1.30
2022-10-06T00:37:48.250Z,1.48
2022-10-06T00:40:15.034Z,1.45
2022-10-06T00:42:53.620Z,1.40
2022-10-06T00:45:36.236Z,1.70
2022-10-06T00:48:07.976Z,1.80
2022-10-06T00:50:36.038Z,1.33
2022-10-06T00:53:03.304Z,1.48
2022-10-06T00:55:30.984Z,1.40
2022-10-06T00:57:59.247Z,1.50
2022-10-06T01:00:25.940Z,1.65
2022-10-06T01:03:01.998Z,1.73
2022-10-06T01:05:42.128Z,1.60
2022-10-06T01:08:08.826Z,1.50
2022-10-06T01:10:35.293Z,1.42
2022-10-06T01:13:02.250Z,1.60
2022-10-06T01:15:29.129Z,1.25
2022-10-06T01:18:02.866Z,1.60
2022-10-06T01:20:29.975Z,1.30
2022-10-06T01:23:01.958Z,1.52
2022-10-06T01:25:28.533Z,1.25
2022-10-06T01:27:56.320Z,1.25
2022-10-06T01:30:29.684Z,1.52
2022-10-06T01:32:56.560Z,1.65
2022-10-06T01:35:22.981Z,1.25
2022-10-06T01:37:49.375Z,1.50
2022-10-06T01:40:15.903Z,1.40
2022-10-06T01:42:42.330Z,1.52
2022-10-06T01:45:09.105Z,1.50
2022-10-06T01:47:35.588Z,1.33
2022-10-06T01:50:01.993Z,1.35
2022-10-06T01:52:28.400Z,1.50
2022-10-06T01:54:54.948Z,1.42
2022-10-06T01:57:21.428Z,1.60
2022-10-06T01:59:52.615Z,1.58
2022-10-06T02:02:21.042Z,1.42
2022-10-06T02:04:47.722Z,1.67
2022-10-06T02:07:14.169Z,1.48
2022-10-06T02:09:44.845Z,1.35
2022-10-06T02:12:11.344Z,1.50
2022-10-06T02:14:37.831Z,1.60
2022-10-06T02:17:04.267Z,1.23
2022-10-06T02:19:30.689Z,1.63
2022-10-06T02:21:58.240Z,1.60
2022-10-06T02:24:27.374Z,1.48
2022-10-06T02:26:54.245Z,1.40
2022-10-06T02:29:20.693Z,1.83
2022-10-06T02:31:47.911Z,1.38
2022-10-06T02:34:14.300Z,1.77
2022-10-06T02:36:40.734Z,1.60
2022-10-06T02:39:07.132Z,1.95
2022-10-06T02:41:33.627Z,1.80
2022-10-06T02:44:00.026Z,1.70
2022-10-06T02:46:26.857Z,1.52
2022-10-06T02:48:56.164Z,1.67
2022-10-06T02:51:22.881Z,1.58
2022-10-06T02:53:50.248Z,1.52
2022-10-06T02:56:20.897Z,1.48
2022-10-06T02:58:50.608Z,1.50
2022-10-06T03:01:19.959Z,1.23
2022-10-06T03:03:47.776Z,1.60
2022-10-06T03:06:24.719Z,1.23
2022-10-06T03:09:03.532Z,1.30
2022-10-06T03:11:41.030Z,1.40
2022-10-06T03:14:07.500Z,1.52
2022-10-06T03:16:39.516Z,1.55
2022-10-06T03:19:11.114Z,1.60
2022-10-06T03:21:40.846Z,1.73
2022-10-06T03:24:07.410Z,1.60
2022-10-06T03:26:39.942Z,1.52
2022-10-06T03:29:11.354Z,1.58
2022-10-06T03:31:39.394Z,1.20
2022-10-06T03:34:05.961Z,1.50
2022-10-06T03:36:33.754Z,3.17
2022-10-06T03:39:01.017Z,1.55
2022-10-06T03:41:30.150Z,1.45
2022-10-06T03:43:58.852Z,1.75
2022-10-06T03:46:28.172Z,1.40
2022-10-06T03:48:57.310Z,1.40
2022-10-06T03:51:29.686Z,1.50
2022-10-06T03:53:57.063Z,1.48
2022-10-06T03:56:26.462Z,1.75
2022-10-06T03:58:59.677Z,1.48
2022-10-06T04:01:36.583Z,1.52
2022-10-06T04:04:07.059Z,1.35
2022-10-06T04:06:44.468Z,1.40
2022-10-06T04:09:15.511Z,1.70
2022-10-06T04:11:43.628Z,1.45
2022-10-06T04:14:13.008Z,1.60
2022-10-06T04:16:47.931Z,1.40
2022-10-06T04:19:16.195Z,1.70
2022-10-06T04:21:45.420Z,1.48
2022-10-06T04:24:12.774Z,1.63
2022-10-06T04:26:42.110Z,1.50
2022-10-06T04:29:11.431Z,1.58
2022-10-06T04:31:39.212Z,1.60
2022-10-06T04:34:07.336Z,1.70
2022-10-06T04:36:40.961Z,1.80
2022-10-06T04:39:10.245Z,1.80
2022-10-06T04:41:39.023Z,1.95
2022-10-06T04:44:06.221Z,1.70
2022-10-06T04:46:43.613Z,2.10
2022-10-06T04:49:20.800Z,1.83
2022-10-06T04:51:49.140Z,2.08
2022-10-06T04:54:15.869Z,1.85
2022-10-06T04:56:42.329Z,2.65
2022-10-06T04:59:08.720Z,1.80
2022-10-06T05:01:37.234Z,1.70
2022-10-06T05:04:05.025Z,1.90
2022-10-06T05:06:40.920Z,1.90
2022-10-06T05:09:10.123Z,1.85
2022-10-06T05:11:38.628Z,2.00
2022-10-06T05:14:05.323Z,1.77
2022-10-06T05:16:32.106Z,2.00
2022-10-06T05:18:59.128Z,2.00
2022-10-06T05:21:28.412Z,1.63
2022-10-06T05:23:54.938Z,2.00
2022-10-06T05:26:23.600Z,1.75
2022-10-06T05:28:50.574Z,2.17
2022-10-06T05:31:20.453Z,2.28
2022-10-06T05:33:47.266Z,2.10
2022-10-06T05:36:15.778Z,1.98
2022-10-06T05:38:43.995Z,2.15
2022-10-06T05:41:19.357Z,2.10
2022-10-06T05:43:45.883Z,2.45
2022-10-06T05:46:20.282Z,1.80
2022-10-06T05:48:48.041Z,2.22
2022-10-06T05:51:14.909Z,2.25
2022-10-06T05:53:41.550Z,1.98
2022-10-06T05:56:13.157Z,2.40
2022-10-06T05:58:42.106Z,2.17
2022-10-06T06:01:11.771Z,2.10
2022-10-06T06:03:39.847Z,2.50
2022-10-06T06:06:22.580Z,2.33
2022-10-06T06:08:53.700Z,2.55
2022-10-06T06:11:26.331Z,2.80
2022-10-06T06:13:56.882Z,2.83
2022-10-06T06:16:23.990Z,2.70
2022-10-06T06:18:50.790Z,3.38
2022-10-06T06:21:17.740Z,2.80
2022-10-06T06:23:51.429Z,3.58
2022-10-06T06:26:29.176Z,3.58
2022-10-06T06:29:02.489Z,3.65
2022-10-06T06:31:31.382Z,3.63
2022-10-06T06:33:59.893Z,3.22
2022-10-06T06:37:08.357Z,3.13
2022-10-06T06:39:36.130Z,3.65
2022-10-06T06:42:24.715Z,3.10
2022-10-06T06:44:51.099Z,2.90
2022-10-06T06:47:19.157Z,3.25
2022-10-06T06:49:53.816Z,2.67
2022-10-06T06:52:20.682Z,3.25
2022-10-06T06:54:49.901Z,2.88
2022-10-06T06:57:22.262Z,2.97
2022-10-06T06:59:48.639Z,2.67
2022-10-06T07:02:17.132Z,2.67
2022-10-06T07:04:43.958Z,2.92
2022-10-06T07:07:11.418Z,2.55
2022-10-06T07:09:38.088Z,2.80
2022-10-06T07:12:04.476Z,2.80
2022-10-06T07:14:30.912Z,2.45
2022-10-06T07:17:35.799Z,2.40
2022-10-06T07:20:20.601Z,2.53
2022-10-06T07:23:05.502Z,2.70
2022-10-06T07:25:32.072Z,2.80
2022-10-06T07:27:58.637Z,3.00
2022-10-06T07:30:29.260Z,3.40
2022-10-06T07:32:55.818Z,3.20
2022-10-06T07:35:23.971Z,2.90
2022-10-06T07:37:51.284Z,2.92
2022-10-06T07:40:17.808Z,2.78
2022-10-06T07:42:52.084Z,2.67
2022-10-06T07:45:41.656Z,2.47
2022-10-06T07:48:14.343Z,2.35
2022-10-06T07:50:49.261Z,2.40
2022-10-06T07:53:17.690Z,1.98
2022-10-06T07:55:46.563Z,2.60
2022-10-06T07:58:17.282Z,2.28
2022-10-06T08:00:44.887Z,2.00
2022-10-06T08:03:23.598Z,2.15
2022-10-06T08:05:57.558Z,1.95
2022-10-06T08:08:24.240Z,2.20
2022-10-06T08:11:01.554Z,2.13
2022-10-06T08:13:28.692Z,1.85
2022-10-06T08:15:56.518Z,1.88
2022-10-06T08:18:45.438Z,2.08
2022-10-06T08:21:14.236Z,2.10
2022-10-06T08:23:44.887Z,1.52
2022-10-06T08:26:12.899Z,1.90
2022-10-06T08:28:40.127Z,1.92
2022-10-06T08:31:11.530Z,1.70
2022-10-06T08:33:39.691Z,1.95
2022-10-06T08:36:08.651Z,1.95
2022-10-06T08:38:37.054Z,1.75
2022-10-06T08:41:24.878Z,1.70
2022-10-06T08:43:57.374Z,2.15
2022-10-06T08:46:28.067Z,2.45
2022-10-06T08:48:54.499Z,2.20
2022-10-06T08:51:30.020Z,2.00
2022-10-06T08:54:29.869Z,2.30
2022-10-06T08:57:21.426Z,2.20
2022-10-06T08:59:53.476Z,1.90
2022-10-06T09:02:30.246Z,2.40
2022-10-06T09:07:54.099Z,2.00
2022-10-06T09:10:42.016Z,1.83
2022-10-06T09:13:21.625Z,2.33
2022-10-06T09:15:58.196Z,2.05
2022-10-06T09:18:49.468Z,2.35
2022-10-06T09:21:34.869Z,2.40
2022-10-06T09:24:07.546Z,2.47
2022-10-06T09:26:34.453Z,2.35
2022-10-06T09:29:00.960Z,2.47
2022-10-06T09:31:38.190Z,2.45
2022-10-06T09:34:28.475Z,2.20
2022-10-06T09:37:08.987Z,2.50
2022-10-06T09:39:38.349Z,2.00
2022-10-06T09:42:13.408Z,2.17
2022-10-06T09:44:53.520Z,1.95
2022-10-06T09:47:35.066Z,2.03
2022-10-06T09:50:20.153Z,2.30
2022-10-06T09:53:16.320Z,2.10
2022-10-06T09:55:52.257Z,2.40
2022-10-06T09:58:22.430Z,2.10
2022-10-06T10:01:09.228Z,2.17
2022-10-06T10:04:19.918Z,1.90
2022-10-06T10:06:47.796Z,1.83
2022-10-06T10:09:20.615Z,1.92
2022-10-06T10:12:25.028Z,2.10
2022-10-06T10:15:04.413Z,1.85
2022-10-06T10:17:48.140Z,1.70
2022-10-06T10:20:55.804Z,1.83
2022-10-06T10:23:31.638Z,2.30
2022-10-06T10:26:13.831Z,2.00
2022-10-06T10:28:59.848Z,2.08
2022-10-06T10:31:56.118Z,1.60
2022-10-06T10:34:42.740Z,2.00
2022-10-06T10:37:14.104Z,2.28
2022-10-06T10:39:52.621Z,1.83
2022-10-06T10:42:28.647Z,2.30
2022-10-06T10:45:02.885Z,2.17
2022-10-06T10:47:41.765Z,2.13
2022-10-06T10:50:29.267Z,2.05
2022-10-06T10:53:15.015Z,2.10
2022-10-06T10:55:44.520Z,2.10
2022-10-06T10:58:19.021Z,2.53
2022-10-06T11:00:49.948Z,2.00
2022-10-06T11:03:16.491Z,2.55
2022-10-06T11:05:59.136Z,2.30
2022-10-06T11:08:56.322Z,2.33
2022-10-06T11:12:02.132Z,2.33
2022-10-06T11:14:55.928Z,2.28
2022-10-06T11:17:40.241Z,2.50
2022-10-06T11:20:26.548Z,2.20
2022-10-06T11:23:30.456Z,2.33
2022-10-06T11:26:26.490Z,2.25
2022-10-06T11:29:34.735Z,1.92
2022-10-06T11:32:21.897Z,2.17
2022-10-06T11:34:49.883Z,2.70
2022-10-06T11:37:22.481Z,2.13
2022-10-06T11:40:15.888Z,2.85
2022-10-06T11:43:20.076Z,2.63
2022-10-06T11:46:04.862Z,2.38
2022-10-06T11:48:33.709Z,2.40
2022-10-06T11:51:24.475Z,2.83
2022-10-06T11:53:52.144Z,2.17
2022-10-06T11:56:18.560Z,2.17
2022-10-06T11:58:51.157Z,2.08
2022-10-06T12:01:38.999Z,2.38
2022-10-06T12:04:08.407Z,2.60
2022-10-06T12:06:47.064Z,2.60
2022-10-06T12:09:30.743Z,2.10
2022-10-06T12:12:15.588Z,2.28
2022-10-06T12:18:26.267Z,2.15
2022-10-06T12:21:06.229Z,2.30
2022-10-06T12:24:18.432Z,2.03
2022-10-06T12:26:44.788Z,2.05
2022-10-06T12:29:38.105Z,1.80
2022-10-06T12:32:12.988Z,2.22
2022-10-06T12:34:39.344Z,2.03
2022-10-06T12:37:36.827Z,1.92
2022-10-06T12:43:29.657Z,2.10
2022-10-06T12:45:57.220Z,2.70
2022-10-06T12:48:51.716Z,2.58
2022-10-06T12:51:23.195Z,2.90
2022-10-06T12:54:22.193Z,2.85
2022-10-06T12:57:14.600Z,2.55
2022-10-06T12:59:41.798Z,2.50
2022-10-06T13:02:21.193Z,2.50
2022-10-06T13:05:01.508Z,2.42
2022-10-06T13:07:31.139Z,2.10
2022-10-06T13:10:15.934Z,2.55
2022-10-06T13:12:47.427Z,2.50
2022-10-06T13:15:25.350Z,2.28
2022-10-06T13:18:14.356Z,2.33
2022-10-06T13:20:50.450Z,2.17
2022-10-06T13:23:24.595Z,2.60
2022-10-06T13:26:15.532Z,2.00
2022-10-06T13:28:43.932Z,2.58
2022-10-06T13:31:34.643Z,2.40
2022-10-06T13:34:12.845Z,2.20
2022-10-06T13:36:43.840Z,2.55
2022-10-06T13:39:18.784Z,2.40
2022-10-06T13:42:06.080Z,2.53
2022-10-06T13:44:45.045Z,2.45
2022-10-06T13:47:21.333Z,2.13
2022-10-06T13:49:53.138Z,2.20
2022-10-06T13:52:30.129Z,2.63
2022-10-06T13:54:58.505Z,2.47
2022-10-06T13:57:47.877Z,2.78
2022-10-06T14:00:14.233Z,2.40
2022-10-06T14:02:45.222Z,2.80
2022-10-06T14:05:26.352Z,2.63
2022-10-06T14:07:56.623Z,2.78
2022-10-06T14:10:34.164Z,3.00
2022-10-06T14:13:01.470Z,2.65
2022-10-06T14:15:45.352Z,3.05
2022-10-06T14:18:46.837Z,3.05
2022-10-06T14:21:41.874Z,3.00
2022-10-06T14:24:18.842Z,3.70
2022-10-06T14:26:54.942Z,3.60
2022-10-06T14:29:23.063Z,4.45
2022-10-06T14:31:49.599Z,3.70
2022-10-06T14:34:21.959Z,3.47
2022-10-06T14:36:55.085Z,3.42
2022-10-06T14:39:22.060Z,3.40
2022-10-06T14:41:55.554Z,3.47
2022-10-06T14:44:24.007Z,3.38
2022-10-06T14:46:58.576Z,3.58
2022-10-06T14:49:29.197Z,3.35
2022-10-06T14:51:59.820Z,3.45
2022-10-06T14:54:35.101Z,3.67
2022-10-06T14:57:02.552Z,3.80
2022-10-06T14:59:32.646Z,3.50
2022-10-06T15:01:59.113Z,3.78
2022-10-06T15:04:31.835Z,3.40
2022-10-06T15:07:19.678Z,3.33
2022-10-06T15:09:53.083Z,3.33
2022-10-06T15:12:23.592Z,3.83
2022-10-06T15:14:50.991Z,3.42
2022-10-06T15:17:24.349Z,3.88
2022-10-06T15:19:54.805Z,3.40
2022-10-06T15:22:21.242Z,4.13
2022-10-06T15:24:52.704Z,3.65
2022-10-06T15:27:37.787Z,3.25
2022-10-06T15:30:16.700Z,3.83
2022-10-06T15:32:43.075Z,3.75
2022-10-06T15:35:11.814Z,4.32
2022-10-06T15:37:48.479Z,3.53
2022-10-06T15:40:16.342Z,3.17
2022-10-06T15:42:46.698Z,3.38
2022-10-06T15:45:14.216Z,8.82
2022-10-06T15:47:40.684Z,4.65
2022-10-06T15:50:07.993Z,3.80
2022-10-06T15:52:34.579Z,2.90
2022-10-06T15:55:00.988Z,2.97
2022-10-06T15:57:28.872Z,3.85
2022-10-06T15:59:55.279Z,3.92
2022-10-06T16:02:22.419Z,3.60
2022-10-06T16:05:16.760Z,2.67
2022-10-06T16:07:43.205Z,3.17
2022-10-06T16:10:09.581Z,3.28
2022-10-06T16:12:35.973Z,3.60
2022-10-06T16:15:02.519Z,3.42
2022-10-06T16:17:28.924Z,3.58
2022-10-06T16:19:58.518Z,3.47
2022-10-06T16:22:24.902Z,3.35
2022-10-06T16:24:51.379Z,3.08
2022-10-06T16:27:18.475Z,3.13
2022-10-06T16:29:45.105Z,3.08
2022-10-06T16:32:17.220Z,3.05
2022-10-06T16:34:43.762Z,3.35
2022-10-06T16:37:10.262Z,2.85
2022-10-06T16:39:36.675Z,3.47
2022-10-06T16:42:03.768Z,3.28
2022-10-06T16:44:33.237Z,4.00
2022-10-06T16:46:59.719Z,3.45
2022-10-06T16:49:28.173Z,3.33
2022-10-06T16:51:54.578Z,3.42
2022-10-06T16:54:21.037Z,3.22
2022-10-06T16:56:53.836Z,3.45
2022-10-06T16:59:26.457Z,3.03
2022-10-06T17:01:52.923Z,3.38
2022-10-06T17:04:21.786Z,3.22
2022-10-06T17:06:57.452Z,3.45
2022-10-06T17:09:29.012Z,3.80
2022-10-06T17:11:59.985Z,3.10
2022-10-06T17:14:27.844Z,3.65
2022-10-06T17:16:56.091Z,3.22
2022-10-06T17:19:24.912Z,3.72
2022-10-06T17:21:57.473Z,3.78
2022-10-06T17:24:28.269Z,3.50
2022-10-06T17:26:55.867Z,3.75
2022-10-06T17:29:23.544Z,4.03
2022-10-06T17:32:00.134Z,4.20
2022-10-06T17:34:31.717Z,4.10
2022-10-06T17:36:59.273Z,4.22
2022-10-06T17:39:25.660Z,4.32
2022-10-06T17:41:53.400Z,3.75
2022-10-06T17:44:23.547Z,3.83
2022-10-06T17:46:56.800Z,3.80
2022-10-06T17:49:25.348Z,4.20
2022-10-06T17:51:53.679Z,3.70
2022-10-06T17:54:22.768Z,4.15
2022-10-06T17:56:53.037Z,4.07
2022-10-06T17:59:25.991Z,3.97
2022-10-06T18:01:56.332Z,3.85
2022-10-06T18:04:23.403Z,4.18
2022-10-06T18:06:52.873Z,3.90
2022-10-06T18:09:19.522Z,4.28
2022-10-06T18:11:48.443Z,4.40
2022-10-06T18:14:19.736Z,4.82
2022-10-06T18:16:53.447Z,4.45
2022-10-06T18:19:35.521Z,4.78
2022-10-06T18:22:09.837Z,4.88
2022-10-06T18:24:36.577Z,4.43
2022-10-06T18:27:05.019Z,4.30
2022-10-06T18:29:33.422Z,5.28
2022-10-06T18:32:40.267Z,4.68
2022-10-06T18:37:34.062Z,5.00
2022-10-06T18:40:02.391Z,5.68
2022-10-06T18:42:29.104Z,5.47
2022-10-06T18:45:14.183Z,5.68
2022-10-06T18:47:58.956Z,5.00
2022-10-06T18:50:35.004Z,4.93
2022-10-06T18:53:01.708Z,5.60
2022-10-06T18:55:29.742Z,4.68
2022-10-06T18:57:56.163Z,5.78
2022-10-06T19:00:22.608Z,6.45
2022-10-06T19:02:51.744Z,6.43
2022-10-06T19:05:18.253Z,5.32
2022-10-06T19:07:45.121Z,5.40
2022-10-06T19:10:11.916Z,5.65
2022-10-06T19:12:38.311Z,5.22
2022-10-06T19:15:05.163Z,5.82
2022-10-06T19:17:32.199Z,5.28
2022-10-06T19:19:58.590Z,5.65
2022-10-06T19:22:25.139Z,5.45
2022-10-06T19:24:52.230Z,5.57
2022-10-06T19:27:23.907Z,4.80
2022-10-06T19:29:54.085Z,5.38
2022-10-06T19:32:26.743Z,5.10
2022-10-06T19:34:54.851Z,5.25
2022-10-06T19:37:21.324Z,5.07
2022-10-06T19:39:50.117Z,4.63
2022-10-06T19:42:36.837Z,5.38
2022-10-06T19:45:05.334Z,6.30
2022-10-06T19:47:31.827Z,5.57
2022-10-06T19:50:04.929Z,5.28
2022-10-06T19:52:34.491Z,5.43
2022-10-06T19:55:01.164Z,4.85
2022-10-06T19:57:29.176Z,4.95
2022-10-06T19:59:55.587Z,4.57
2022-10-06T20:02:22.271Z,5.50
2022-10-06T20:04:48.762Z,5.40
2022-10-06T20:07:15.200Z,5.20
2022-10-06T20:09:47.683Z,5.78
2022-10-06T20:12:14.092Z,5.68
2022-10-06T20:14:40.476Z,5.88
2022-10-06T20:17:06.943Z,6.80
2022-10-06T20:19:34.321Z,6.03
2022-10-06T20:22:01.099Z,6.78
2022-10-06T20:24:27.839Z,6.70
2022-10-06T20:26:54.306Z,7.53
2022-10-06T20:29:25.331Z,6.90
2022-10-06T20:31:54.574Z,8.00
2022-10-06T20:34:26.665Z,9.00
2022-10-06T20:36:56.177Z,7.95
2022-10-06T20:39:41.997Z,7.80
2022-10-06T20:42:14.974Z,8.55
2022-10-06T20:44:42.910Z,8.30
2022-10-06T20:47:10.525Z,9.02
2022-10-06T20:49:37.625Z,8.63
2022-10-06T20:52:05.436Z,7.45
2022-10-06T20:54:34.931Z,7.72
2022-10-06T20:57:04.298Z,7.80
2022-10-06T20:59:31.459Z,9.13
2022-10-06T21:02:00.947Z,8.65
2022-10-06T21:04:27.714Z,8.85
2022-10-06T21:06:54.703Z,9.60
2022-10-06T21:09:21.771Z,8.73
2022-10-06T21:11:48.657Z,8.93
2022-10-06T21:14:16.176Z,8.93
2022-10-06T21:16:45.410Z,9.75
2022-10-06T21:19:14.598Z,9.70
2022-10-06T21:21:42.730Z,9.18
2022-10-06T21:24:09.962Z,9.43
2022-10-06T21:26:42.702Z,10.00
2022-10-06T21:29:12.984Z,10.77
2022-10-06T21:31:39.871Z,10.05
2022-10-06T21:34:06.499Z,9.50
2022-10-06T21:36:33.212Z,10.02
2022-10-06T21:39:06.712Z,9.95
2022-10-06T21:41:38.872Z,11.90
2022-10-06T21:44:13.316Z,10.13
2022-10-06T21:46:40.975Z,10.50
2022-10-06T21:49:12.606Z,9.68
2022-10-06T21:51:40.503Z,9.50
2022-10-06T21:54:07.830Z,9.73
2022-10-06T21:56:34.409Z,9.25
2022-10-06T21:59:01.083Z,9.57
2022-10-06T22:01:30.051Z,9.98
2022-10-06T22:03:58.608Z,10.02
2022-10-06T22:06:25.234Z,9.35
2022-10-06T22:08:51.846Z,9.35
2022-10-06T22:11:24.561Z,10.52
2022-10-06T22:13:55.215Z,10.38
2022-10-06T22:16:24.654Z,9.57
2022-10-06T22:18:51.489Z,11.13
2022-10-06T22:21:17.983Z,11.75
2022-10-06T22:23:46.323Z,10.60
2022-10-06T22:26:14.937Z,11.75
2022-10-06T22:28:47.027Z,11.07
2022-10-06T22:31:14.873Z,10.75
2022-10-06T22:33:42.418Z,9.85
2022-10-06T22:36:11.518Z,10.40
2022-10-06T22:38:38.701Z,9.93
2022-10-06T22:41:07.980Z,9.57
2022-10-06T22:43:35.341Z,9.73
2022-10-06T22:46:02.924Z,9.00
2022-10-06T22:48:29.750Z,9.40
2022-10-06T22:50:56.314Z,8.57
2022-10-06T22:53:24.979Z,9.18
2022-10-06T22:55:52.351Z,9.38
2022-10-06T22:58:19.457Z,9.90
2022-10-06T23:00:46.272Z,9.85
2022-10-06T23:03:13.123Z,9.25
2022-10-06T23:05:40.412Z,10.63
2022-10-06T23:08:07.966Z,10.05
2022-10-06T23:10:36.090Z,9.65
2022-10-06T23:13:03.213Z,10.15
2022-10-06T23:15:30.045Z,9.50
2022-10-06T23:17:56.617Z,10.23
2022-10-06T23:20:23.265Z,10.85
2022-10-06T23:22:49.828Z,11.40
2022-10-06T23:25:16.570Z,10.27
2022-10-06T23:27:43.378Z,11.20
2022-10-06T23:30:10.449Z,11.38
2022-10-06T23:32:37.654Z,11.15
2022-10-06T23:35:04.655Z,11.00
2022-10-06T23:37:31.265Z,12.02
2022-10-06T23:39:57.798Z,12.02
2022-10-06T23:42:24.343Z,14.57
2022-10-06T23:44:50.922Z,13.45
2022-10-06T23:47:17.475Z,13.60
2022-10-06T23:49:44.145Z,15.52
2022-10-06T23:52:11.213Z,13.60
2022-10-06T23:54:37.896Z,15.20
2022-10-06T23:57:04.619Z,14.07
2022-10-06T23:59:31.599Z,15.98
